sensor_id;sensor_type;location;lat;lon;timestamp;pressure;altitude;pressure_sealevel;temperature;humidity
26083;BME280;13848;49.018;12.078;2023-11-18T00:00:09;98368.63;;;4.04;83.50
26083;BME280;13848;49.018;12.078;2023-11-18T00:02:36;98369.97;;;4.08;82.83
26083;BME280;13848;49.018;12.078;2023-11-18T00:05:02;98375.31;;;4.08;82.41
26083;BME280;13848;49.018;12.078;2023-11-18T00:07:28;98369.94;;;3.99;82.84
26083;BME280;13848;49.018;12.078;2023-11-18T00:09:54;98377.94;;;3.99;82.87
26083;BME280;13848;49.018;12.078;2023-11-18T00:12:20;98362.59;;;3.85;82.46
26083;BME280;13848;49.018;12.078;2023-11-18T00:14:46;98365.13;;;3.95;82.65
26083;BME280;13848;49.018;12.078;2023-11-18T00:17:12;98370.94;;;3.98;82.28
26083;BME280;13848;49.018;12.078;2023-11-18T00:19:39;98368.28;;;3.98;82.30
26083;BME280;13848;49.018;12.078;2023-11-18T00:22:05;98374.63;;;3.97;82.37
26083;BME280;13848;49.018;12.078;2023-11-18T00:24:31;98380.91;;;3.88;82.63
26083;BME280;13848;49.018;12.078;2023-11-18T00:26:57;98377.41;;;3.88;82.54
26083;BME280;13848;49.018;12.078;2023-11-18T00:29:23;98373.91;;;3.79;83.59
26083;BME280;13848;49.018;12.078;2023-11-18T00:31:49;98371.19;;;3.71;84.39
26083;BME280;13848;49.018;12.078;2023-11-18T00:34:15;98373.56;;;3.74;83.95
26083;BME280;13848;49.018;12.078;2023-11-18T00:36:42;98371.19;;;3.63;84.77
26083;BME280;13848;49.018;12.078;2023-11-18T00:39:08;98374.00;;;3.61;85.13
26083;BME280;13848;49.018;12.078;2023-11-18T00:41:34;98375.88;;;3.69;84.73
26083;BME280;13848;49.018;12.078;2023-11-18T00:44:00;98370.53;;;3.69;85.14
26083;BME280;13848;49.018;12.078;2023-11-18T00:46:26;98365.84;;;3.71;84.54
26083;BME280;13848;49.018;12.078;2023-11-18T00:48:52;98379.19;;;3.71;85.37
26083;BME280;13848;49.018;12.078;2023-11-18T00:51:18;98387.06;;;3.72;85.14
26083;BME280;13848;49.018;12.078;2023-11-18T00:53:45;98387.56;;;3.76;85.04
26083;BME280;13848;49.018;12.078;2023-11-18T00:56:15;98385.56;;;3.78;85.34
26083;BME280;13848;49.018;12.078;2023-11-18T00:58:41;98385.56;;;3.78;85.43
26083;BME280;13848;49.018;12.078;2023-11-18T01:01:06;98382.56;;;3.73;85.76
26083;BME280;13848;49.018;12.078;2023-11-18T01:03:32;98390.19;;;3.68;86.36
26083;BME280;13848;49.018;12.078;2023-11-18T01:05:58;98389.19;;;3.69;85.59
26083;BME280;13848;49.018;12.078;2023-11-18T01:08:24;98388.19;;;3.70;85.77
26083;BME280;13848;49.018;12.078;2023-11-18T01:10:52;98400.03;;;3.67;86.37
26083;BME280;13848;49.018;12.078;2023-11-18T01:13:17;98398.50;;;3.65;85.78
26083;BME280;13848;49.018;12.078;2023-11-18T01:15:43;98396.19;;;3.62;85.63
26083;BME280;13848;49.018;12.078;2023-11-18T01:18:09;98387.84;;;3.65;85.46
26083;BME280;13848;49.018;12.078;2023-11-18T01:20:36;98399.88;;;3.69;86.05
26083;BME280;13848;49.018;12.078;2023-11-18T01:23:01;98406.56;;;3.73;85.51
26083;BME280;13848;49.018;12.078;2023-11-18T01:25:27;98399.38;;;3.65;85.94
26083;BME280;13848;49.018;12.078;2023-11-18T01:27:55;98403.88;;;3.73;85.52
26083;BME280;13848;49.018;12.078;2023-11-18T01:30:21;98407.22;;;3.75;85.63
26083;BME280;13848;49.018;12.078;2023-11-18T01:32:47;98402.88;;;3.74;85.84
26083;BME280;13848;49.018;12.078;2023-11-18T01:35:12;98405.56;;;3.74;85.99
26083;BME280;13848;49.018;12.078;2023-11-18T01:37:38;98403.38;;;3.69;86.03
26083;BME280;13848;49.018;12.078;2023-11-18T01:40:06;98411.84;;;3.65;86.10
26083;BME280;13848;49.018;12.078;2023-11-18T01:42:32;98411.19;;;3.71;85.93
26083;BME280;13848;49.018;12.078;2023-11-18T01:44:59;98403.72;;;3.74;85.77
26083;BME280;13848;49.018;12.078;2023-11-18T01:47:26;98414.22;;;3.76;85.76
26083;BME280;13848;49.018;12.078;2023-11-18T01:49:52;98413.53;;;3.66;86.33
26083;BME280;13848;49.018;12.078;2023-11-18T01:52:18;98421.88;;;3.71;86.64
26083;BME280;13848;49.018;12.078;2023-11-18T01:54:44;98420.72;;;3.73;85.80
26083;BME280;13848;49.018;12.078;2023-11-18T01:57:10;98412.88;;;3.72;86.06
26083;BME280;13848;49.018;12.078;2023-11-18T01:59:36;98414.22;;;3.76;86.31
26083;BME280;13848;49.018;12.078;2023-11-18T02:02:04;98414.56;;;3.81;85.84
26083;BME280;13848;49.018;12.078;2023-11-18T02:04:30;98418.25;;;3.80;86.76
26083;BME280;13848;49.018;12.078;2023-11-18T02:06:56;98416.75;;;3.78;86.60
26083;BME280;13848;49.018;12.078;2023-11-18T02:09:24;98419.91;;;3.81;86.49
26083;BME280;13848;49.018;12.078;2023-11-18T02:11:53;98413.25;;;3.85;86.15
26083;BME280;13848;49.018;12.078;2023-11-18T02:14:21;98411.59;;;3.84;86.23
26083;BME280;13848;49.018;12.078;2023-11-18T02:16:52;98419.13;;;3.89;85.89
26083;BME280;13848;49.018;12.078;2023-11-18T02:19:21;98417.44;;;3.88;85.72
26083;BME280;13848;49.018;12.078;2023-11-18T02:21:50;98412.63;;;3.91;84.90
26083;BME280;13848;49.018;12.078;2023-11-18T02:24:26;98408.94;;;3.92;84.88
26083;BME280;13848;49.018;12.078;2023-11-18T02:26:56;98410.63;;;3.93;85.24
26083;BME280;13848;49.018;12.078;2023-11-18T02:29:22;98418.78;;;3.92;85.77
26083;BME280;13848;49.018;12.078;2023-11-18T02:31:52;98415.63;;;3.96;85.73
26083;BME280;13848;49.018;12.078;2023-11-18T02:34:22;98417.66;;;3.94;85.79
26083;BME280;13848;49.018;12.078;2023-11-18T02:36:50;98410.31;;;4.05;85.01
26083;BME280;13848;49.018;12.078;2023-11-18T02:39:22;98409.00;;;4.09;85.46
26083;BME280;13848;49.018;12.078;2023-11-18T02:41:53;98409.00;;;4.09;84.83
26083;BME280;13848;49.018;12.078;2023-11-18T02:44:21;98411.38;;;4.12;84.73
26083;BME280;13848;49.018;12.078;2023-11-18T02:46:48;98414.34;;;4.09;86.06
26083;BME280;13848;49.018;12.078;2023-11-18T02:49:15;98415.69;;;4.13;84.93
26083;BME280;13848;49.018;12.078;2023-11-18T02:51:41;98414.34;;;4.00;85.64
26083;BME280;13848;49.018;12.078;2023-11-18T02:54:07;98417.25;;;3.81;85.60
26083;BME280;13848;49.018;12.078;2023-11-18T02:56:34;98427.59;;;3.84;84.80
26083;BME280;13848;49.018;12.078;2023-11-18T02:59:01;98415.56;;;3.80;84.36
26083;BME280;13848;49.018;12.078;2023-11-18T03:01:27;98414.91;;;3.78;85.19
26083;BME280;13848;49.018;12.078;2023-11-18T03:03:53;98418.88;;;3.74;84.44
26083;BME280;13848;49.018;12.078;2023-11-18T03:06:19;98424.50;;;3.63;84.65
26083;BME280;13848;49.018;12.078;2023-11-18T03:08:45;98432.19;;;3.66;85.82
26083;BME280;13848;49.018;12.078;2023-11-18T03:11:11;98432.88;;;3.68;85.09
26083;BME280;13848;49.018;12.078;2023-11-18T03:13:37;98435.19;;;3.71;85.07
26083;BME280;13848;49.018;12.078;2023-11-18T03:16:08;98434.34;;;3.62;84.58
26083;BME280;13848;49.018;12.078;2023-11-18T03:18:34;98443.16;;;3.63;85.33
26083;BME280;13848;49.018;12.078;2023-11-18T03:21:00;98440.66;;;3.61;84.89
26083;BME280;13848;49.018;12.078;2023-11-18T03:23:26;98444.28;;;3.52;84.67
26083;BME280;13848;49.018;12.078;2023-11-18T03:25:51;98450.44;;;3.53;85.26
26083;BME280;13848;49.018;12.078;2023-11-18T03:28:17;98449.31;;;3.55;83.75
26083;BME280;13848;49.018;12.078;2023-11-18T03:30:43;98445.03;;;3.36;83.56
26083;BME280;13848;49.018;12.078;2023-11-18T03:33:11;98450.38;;;3.36;83.80
26083;BME280;13848;49.018;12.078;2023-11-18T03:35:36;98452.25;;;3.44;83.44
26083;BME280;13848;49.018;12.078;2023-11-18T03:38:02;98447.06;;;3.42;83.77
26083;BME280;13848;49.018;12.078;2023-11-18T03:40:28;98441.03;;;3.40;82.63
26083;BME280;13848;49.018;12.078;2023-11-18T03:42:54;98457.91;;;3.23;82.81
26083;BME280;13848;49.018;12.078;2023-11-18T03:45:20;98469.59;;;3.22;83.22
26083;BME280;13848;49.018;12.078;2023-11-18T03:47:46;98481.66;;;3.34;82.83
26083;BME280;13848;49.018;12.078;2023-11-18T03:50:13;98477.03;;;3.36;82.64
26083;BME280;13848;49.018;12.078;2023-11-18T03:52:39;98476.31;;;3.34;82.73
26083;BME280;13848;49.018;12.078;2023-11-18T03:55:06;98474.41;;;3.44;83.10
26083;BME280;13848;49.018;12.078;2023-11-18T03:57:32;98471.56;;;3.46;83.32
26083;BME280;13848;49.018;12.078;2023-11-18T03:59:58;98478.06;;;3.43;83.78
26083;BME280;13848;49.018;12.078;2023-11-18T04:02:24;98481.84;;;3.41;84.24
26083;BME280;13848;49.018;12.078;2023-11-18T04:04:50;98480.03;;;3.41;83.42
26083;BME280;13848;49.018;12.078;2023-11-18T04:07:17;98470.72;;;3.45;83.80
26083;BME280;13848;49.018;12.078;2023-11-18T04:09:43;98470.72;;;3.45;82.87
26083;BME280;13848;49.018;12.078;2023-11-18T04:12:09;98469.44;;;3.50;83.79
26083;BME280;13848;49.018;12.078;2023-11-18T04:14:36;98472.72;;;3.43;83.13
26083;BME280;13848;49.018;12.078;2023-11-18T04:17:02;98471.38;;;3.39;83.62
26083;BME280;13848;49.018;12.078;2023-11-18T04:19:27;98481.03;;;3.40;83.41
26083;BME280;13848;49.018;12.078;2023-11-18T04:21:53;98481.50;;;3.36;83.69
26083;BME280;13848;49.018;12.078;2023-11-18T04:24:21;98476.69;;;3.39;84.07
26083;BME280;13848;49.018;12.078;2023-11-18T04:26:47;98468.16;;;3.36;84.62
26083;BME280;13848;49.018;12.078;2023-11-18T04:29:13;98473.50;;;3.36;84.00
26083;BME280;13848;49.018;12.078;2023-11-18T04:31:39;98464.38;;;3.38;83.86
26083;BME280;13848;49.018;12.078;2023-11-18T04:34:05;98476.53;;;3.41;84.59
26083;BME280;13848;49.018;12.078;2023-11-18T04:36:30;98477.03;;;3.36;84.79
26083;BME280;13848;49.018;12.078;2023-11-18T04:38:56;98472.53;;;3.37;84.74
26083;BME280;13848;49.018;12.078;2023-11-18T04:41:24;98470.53;;;3.39;84.93
26083;BME280;13848;49.018;12.078;2023-11-18T04:43:50;98481.50;;;3.36;84.53
26083;BME280;13848;49.018;12.078;2023-11-18T04:46:16;98485.69;;;3.38;85.03
26083;BME280;13848;49.018;12.078;2023-11-18T04:48:42;98491.00;;;3.38;84.69
26083;BME280;13848;49.018;12.078;2023-11-18T04:51:08;98483.59;;;3.50;84.68
26083;BME280;13848;49.018;12.078;2023-11-18T04:53:34;98488.94;;;3.50;84.28
26083;BME280;13848;49.018;12.078;2023-11-18T04:56:00;98491.22;;;3.45;84.88
26083;BME280;13848;49.018;12.078;2023-11-18T04:58:27;98494.34;;;3.40;85.11
26083;BME280;13848;49.018;12.078;2023-11-18T05:00:53;98491.66;;;3.32;85.22
26083;BME280;13848;49.018;12.078;2023-11-18T05:03:19;98482.69;;;3.41;84.84
26083;BME280;13848;49.018;12.078;2023-11-18T05:05:45;98482.13;;;3.30;84.91
26083;BME280;13848;49.018;12.078;2023-11-18T05:08:18;98487.34;;;3.39;84.99
26083;BME280;13848;49.018;12.078;2023-11-18T05:10:46;98491.00;;;3.38;84.68
26083;BME280;13848;49.018;12.078;2023-11-18T05:13:12;98496.03;;;3.41;85.74
26083;BME280;13848;49.018;12.078;2023-11-18T05:15:39;98488.94;;;3.50;85.03
26083;BME280;13848;49.018;12.078;2023-11-18T05:18:05;98493.22;;;3.43;84.47
26083;BME280;13848;49.018;12.078;2023-11-18T05:20:31;98480.16;;;3.32;84.83
26083;BME280;13848;49.018;12.078;2023-11-18T05:22:57;98480.84;;;3.42;84.80
26083;BME280;13848;49.018;12.078;2023-11-18T05:25:23;98481.41;;;3.45;84.45
26083;BME280;13848;49.018;12.078;2023-11-18T05:27:49;98488.66;;;3.35;84.69
26083;BME280;13848;49.018;12.078;2023-11-18T05:30:15;98479.06;;;3.42;84.61
26083;BME280;13848;49.018;12.078;2023-11-18T05:32:42;98470.53;;;3.39;84.84
26083;BME280;13848;49.018;12.078;2023-11-18T05:35:08;98480.97;;;3.32;84.30
26083;BME280;13848;49.018;12.078;2023-11-18T05:37:34;98475.13;;;3.29;84.05
26083;BME280;13848;49.018;12.078;2023-11-18T05:40:00;98471.69;;;3.36;84.20
26083;BME280;13848;49.018;12.078;2023-11-18T05:42:26;98475.03;;;3.38;84.15
26083;BME280;13848;49.018;12.078;2023-11-18T05:44:52;98484.66;;;3.31;84.43
26083;BME280;13848;49.018;12.078;2023-11-18T05:47:18;98482.94;;;3.30;84.82
26083;BME280;13848;49.018;12.078;2023-11-18T05:49:45;98486.31;;;3.32;84.60
26083;BME280;13848;49.018;12.078;2023-11-18T05:52:11;98482.03;;;3.39;84.35
26083;BME280;13848;49.018;12.078;2023-11-18T05:54:37;98482.34;;;3.36;84.25
26083;BME280;13848;49.018;12.078;2023-11-18T05:57:03;98483.28;;;3.27;84.33
26083;BME280;13848;49.018;12.078;2023-11-18T05:59:29;98487.16;;;3.33;84.25
26083;BME280;13848;49.018;12.078;2023-11-18T06:01:55;98480.97;;;3.32;83.79
26083;BME280;13848;49.018;12.078;2023-11-18T06:04:21;98475.66;;;3.32;83.88
26083;BME280;13848;49.018;12.078;2023-11-18T06:06:48;98478.31;;;3.32;84.03
26083;BME280;13848;49.018;12.078;2023-11-18T06:09:14;98493.78;;;3.29;84.28
26083;BME280;13848;49.018;12.078;2023-11-18T06:11:40;98500.22;;;3.44;83.40
26083;BME280;13848;49.018;12.078;2023-11-18T06:14:06;98496.34;;;3.38;83.96
26083;BME280;13848;49.018;12.078;2023-11-18T06:16:32;98496.13;;;3.32;83.88
26083;BME280;13848;49.018;12.078;2023-11-18T06:18:58;98510.22;;;3.24;84.28
26083;BME280;13848;49.018;12.078;2023-11-18T06:21:25;98503.06;;;3.25;84.54
26083;BME280;13848;49.018;12.078;2023-11-18T06:23:54;98507.22;;;3.19;85.03
26083;BME280;13848;49.018;12.078;2023-11-18T06:26:20;98501.59;;;3.30;84.70
26083;BME280;13848;49.018;12.078;2023-11-18T06:28:48;98500.56;;;3.23;84.42
26083;BME280;13848;49.018;12.078;2023-11-18T06:31:14;98505.50;;;3.18;84.99
26083;BME280;13848;49.018;12.078;2023-11-18T06:33:41;98501.13;;;3.09;84.71
26083;BME280;13848;49.018;12.078;2023-11-18T06:36:07;98509.72;;;3.03;84.27
26083;BME280;13848;49.018;12.078;2023-11-18T06:38:33;98517.03;;;3.01;84.51
26083;BME280;13848;49.018;12.078;2023-11-18T06:41:01;98519.41;;;3.04;84.59
26083;BME280;13848;49.018;12.078;2023-11-18T06:43:27;98525.72;;;3.03;84.23
26083;BME280;13848;49.018;12.078;2023-11-18T06:45:53;98523.28;;;2.91;84.20
26083;BME280;13848;49.018;12.078;2023-11-18T06:48:19;98519.56;;;2.84;84.35
26083;BME280;13848;49.018;12.078;2023-11-18T06:50:45;98519.47;;;2.76;84.26
26083;BME280;13848;49.018;12.078;2023-11-18T06:53:11;98522.13;;;2.76;84.53
26083;BME280;13848;49.018;12.078;2023-11-18T06:55:37;98527.78;;;2.73;84.38
26083;BME280;13848;49.018;12.078;2023-11-18T06:58:04;98522.19;;;2.66;83.78
26083;BME280;13848;49.018;12.078;2023-11-18T07:00:30;98532.31;;;2.63;84.16
26083;BME280;13848;49.018;12.078;2023-11-18T07:02:56;98540.38;;;2.71;84.40
26083;BME280;13848;49.018;12.078;2023-11-18T07:05:22;98532.94;;;2.75;83.66
26083;BME280;13848;49.018;12.078;2023-11-18T07:07:48;98539.91;;;2.58;83.87
26083;BME280;13848;49.018;12.078;2023-11-18T07:10:14;98533.38;;;2.70;83.67
26083;BME280;13848;49.018;12.078;2023-11-18T07:12:40;98535.97;;;2.62;83.43
26083;BME280;13848;49.018;12.078;2023-11-18T07:15:08;98532.09;;;2.74;83.84
26083;BME280;13848;49.018;12.078;2023-11-18T07:17:34;98537.81;;;2.79;83.57
26083;BME280;13848;49.018;12.078;2023-11-18T07:19:59;98543.44;;;2.76;83.30
26083;BME280;13848;49.018;12.078;2023-11-18T07:22:25;98548.53;;;2.87;83.46
26083;BME280;13848;49.018;12.078;2023-11-18T07:24:51;98544.75;;;3.08;83.93
26083;BME280;13848;49.018;12.078;2023-11-18T07:27:17;98546.19;;;3.20;83.22
26083;BME280;13848;49.018;12.078;2023-11-18T07:29:43;98552.97;;;3.14;82.31
26083;BME280;13848;49.018;12.078;2023-11-18T07:32:11;98549.91;;;3.09;82.41
26083;BME280;13848;49.018;12.078;2023-11-18T07:34:36;98557.75;;;3.11;82.60
26083;BME280;13848;49.018;12.078;2023-11-18T07:37:03;98561.09;;;3.13;82.90
26083;BME280;13848;49.018;12.078;2023-11-18T07:39:29;98563.63;;;3.14;82.80
26083;BME280;13848;49.018;12.078;2023-11-18T07:41:55;98579.28;;;3.17;82.85
26083;BME280;13848;49.018;12.078;2023-11-18T07:44:21;98579.38;;;3.08;82.27
26083;BME280;13848;49.018;12.078;2023-11-18T07:46:47;98582.34;;;3.05;82.26
26083;BME280;13848;49.018;12.078;2023-11-18T07:49:14;98581.06;;;3.09;82.53
26083;BME280;13848;49.018;12.078;2023-11-18T07:51:40;98585.66;;;3.25;82.06
26083;BME280;13848;49.018;12.078;2023-11-18T07:54:06;98588.28;;;3.16;81.85
26083;BME280;13848;49.018;12.078;2023-11-18T07:56:32;98586.22;;;3.28;81.56
26083;BME280;13848;49.018;12.078;2023-11-18T07:58:57;98586.81;;;3.22;81.51
26083;BME280;13848;49.018;12.078;2023-11-18T08:01:23;98590.16;;;3.24;82.04
26083;BME280;13848;49.018;12.078;2023-11-18T08:03:49;98591.88;;;3.25;82.02
26083;BME280;13848;49.018;12.078;2023-11-18T08:06:17;98581.66;;;3.38;82.29
26083;BME280;13848;49.018;12.078;2023-11-18T08:08:42;98575.69;;;3.44;81.56
26083;BME280;13848;49.018;12.078;2023-11-18T08:11:10;98583.75;;;3.53;81.28
26083;BME280;13848;49.018;12.078;2023-11-18T08:13:36;98580.31;;;3.60;81.44
26083;BME280;13848;49.018;12.078;2023-11-18T08:16:03;98581.44;;;3.58;81.08
26083;BME280;13848;49.018;12.078;2023-11-18T08:18:29;98576.31;;;3.64;81.08
26083;BME280;13848;49.018;12.078;2023-11-18T08:20:55;98584.88;;;3.68;80.73
26083;BME280;13848;49.018;12.078;2023-11-18T08:23:22;98589.75;;;3.72;80.74
26083;BME280;13848;49.018;12.078;2023-11-18T08:25:48;98587.88;;;3.99;79.53
26083;BME280;13848;49.018;12.078;2023-11-18T08:28:14;98583.81;;;5.05;77.49
26083;BME280;13848;49.018;12.078;2023-11-18T08:30:40;98582.81;;;5.88;76.69
26083;BME280;13848;49.018;12.078;2023-11-18T08:33:06;98575.44;;;6.54;75.92
26083;BME280;13848;49.018;12.078;2023-11-18T08:35:32;98582.69;;;7.30;74.20
26083;BME280;13848;49.018;12.078;2023-11-18T08:37:58;98576.06;;;6.95;71.23
26083;BME280;13848;49.018;12.078;2023-11-18T08:40:25;98576.03;;;7.49;71.93
26083;BME280;13848;49.018;12.078;2023-11-18T08:42:52;98581.53;;;8.08;69.22
26083;BME280;13848;49.018;12.078;2023-11-18T08:45:19;98584.22;;;8.08;67.41
26083;BME280;13848;49.018;12.078;2023-11-18T08:47:46;98574.97;;;8.40;67.83
26083;BME280;13848;49.018;12.078;2023-11-18T08:50:13;98567.19;;;9.11;67.63
26083;BME280;13848;49.018;12.078;2023-11-18T08:52:39;98555.84;;;9.37;65.18
26083;BME280;13848;49.018;12.078;2023-11-18T08:55:05;98565.31;;;9.33;64.14
26083;BME280;13848;49.018;12.078;2023-11-18T08:57:34;98563.16;;;8.86;62.30
26083;BME280;13848;49.018;12.078;2023-11-18T09:00:00;98575.72;;;8.49;64.64
26083;BME280;13848;49.018;12.078;2023-11-18T09:02:26;98582.28;;;8.32;64.39
26083;BME280;13848;49.018;12.078;2023-11-18T09:04:52;98588.91;;;7.91;66.83
26083;BME280;13848;49.018;12.078;2023-11-18T09:07:18;98583.44;;;7.85;66.88
26083;BME280;13848;49.018;12.078;2023-11-18T09:09:44;98575.44;;;7.77;67.51
26083;BME280;13848;49.018;12.078;2023-11-18T09:12:11;98570.53;;;7.65;65.82
26083;BME280;13848;49.018;12.078;2023-11-18T09:14:39;98575.72;;;7.82;67.52
26083;BME280;13848;49.018;12.078;2023-11-18T09:17:05;98569.81;;;7.71;67.29
26083;BME280;13848;49.018;12.078;2023-11-18T09:19:31;98571.63;;;7.56;67.37
26083;BME280;13848;49.018;12.078;2023-11-18T09:21:57;98579.78;;;7.40;67.62
26083;BME280;13848;49.018;12.078;2023-11-18T09:24:23;98588.38;;;6.81;68.76
26083;BME280;13848;49.018;12.078;2023-11-18T09:26:49;98590.88;;;6.83;68.03
26083;BME280;13848;49.018;12.078;2023-11-18T09:29:15;98591.56;;;6.85;69.24
26083;BME280;13848;49.018;12.078;2023-11-18T09:31:42;98603.88;;;6.94;68.13
26083;BME280;13848;49.018;12.078;2023-11-18T09:34:08;98600.28;;;6.79;68.53
26083;BME280;13848;49.018;12.078;2023-11-18T09:36:34;98596.03;;;6.61;68.60
26083;BME280;13848;49.018;12.078;2023-11-18T09:39:00;98598.47;;;6.71;69.53
26083;BME280;13848;49.018;12.078;2023-11-18T09:41:26;98600.00;;;6.65;69.26
26083;BME280;13848;49.018;12.078;2023-11-18T09:43:52;98599.69;;;6.60;69.72
26083;BME280;13848;49.018;12.078;2023-11-18T09:46:22;98607.13;;;6.50;70.17
26083;BME280;13848;49.018;12.078;2023-11-18T09:48:50;98607.94;;;6.51;70.48
26083;BME280;13848;49.018;12.078;2023-11-18T09:51:20;98607.50;;;6.39;70.00
26083;BME280;13848;49.018;12.078;2023-11-18T09:53:49;98610.63;;;6.43;70.32
26083;BME280;13848;49.018;12.078;2023-11-18T09:56:19;98597.13;;;6.28;71.05
26083;BME280;13848;49.018;12.078;2023-11-18T09:58:56;98602.63;;;6.34;71.48
26083;BME280;13848;49.018;12.078;2023-11-18T10:01:26;98597.81;;;6.22;70.86
26083;BME280;13848;49.018;12.078;2023-11-18T10:03:55;98588.09;;;6.29;71.26
26083;BME280;13848;49.018;12.078;2023-11-18T10:06:21;98586.97;;;6.54;70.44
26083;BME280;13848;49.018;12.078;2023-11-18T10:08:47;98579.91;;;6.70;70.71
26083;BME280;13848;49.018;12.078;2023-11-18T10:11:14;98582.44;;;6.94;70.86
26083;BME280;13848;49.018;12.078;2023-11-18T10:13:40;98580.31;;;7.12;70.19
26083;BME280;13848;49.018;12.078;2023-11-18T10:16:07;98559.69;;;6.90;70.60
26083;BME280;13848;49.018;12.078;2023-11-18T10:18:33;98559.31;;;6.93;70.24
26083;BME280;13848;49.018;12.078;2023-11-18T10:21:00;98562.38;;;6.90;69.73
26083;BME280;13848;49.018;12.078;2023-11-18T10:23:26;98570.13;;;7.08;70.48
26083;BME280;13848;49.018;12.078;2023-11-18T10:25:53;98559.56;;;7.90;69.89
26083;BME280;13848;49.018;12.078;2023-11-18T10:28:23;98561.38;;;6.83;69.48
26083;BME280;13848;49.018;12.078;2023-11-18T10:30:50;98557.88;;;6.82;70.48
26083;BME280;13848;49.018;12.078;2023-11-18T10:33:17;98562.16;;;7.23;70.58
26083;BME280;13848;49.018;12.078;2023-11-18T10:35:49;98564.72;;;7.39;69.60
26083;BME280;13848;49.018;12.078;2023-11-18T10:38:17;98571.03;;;7.46;68.65
26083;BME280;13848;49.018;12.078;2023-11-18T10:40:43;98558.84;;;8.40;68.87
26083;BME280;13848;49.018;12.078;2023-11-18T10:43:08;98549.50;;;9.23;64.63
26083;BME280;13848;49.018;12.078;2023-11-18T10:45:35;98557.66;;;10.83;65.87
26083;BME280;13848;49.018;12.078;2023-11-18T10:48:01;98550.75;;;11.35;59.45
26083;BME280;13848;49.018;12.078;2023-11-18T10:50:27;98551.78;;;9.97;61.29
26083;BME280;13848;49.018;12.078;2023-11-18T10:52:53;98556.75;;;9.72;63.32
26083;BME280;13848;49.018;12.078;2023-11-18T10:55:20;98553.06;;;9.09;63.03
26083;BME280;13848;49.018;12.078;2023-11-18T10:57:46;98554.66;;;8.67;63.88
26083;BME280;13848;49.018;12.078;2023-11-18T11:00:13;98552.25;;;8.58;64.12
26083;BME280;13848;49.018;12.078;2023-11-18T11:02:39;98554.69;;;8.38;64.90
26083;BME280;13848;49.018;12.078;2023-11-18T11:05:06;98547.81;;;8.50;65.77
26083;BME280;13848;49.018;12.078;2023-11-18T11:07:32;98546.63;;;8.52;65.82
26083;BME280;13848;49.018;12.078;2023-11-18T11:09:59;98541.50;;;8.72;65.64
26083;BME280;13848;49.018;12.078;2023-11-18T11:12:29;98544.50;;;8.48;65.87
26083;BME280;13848;49.018;12.078;2023-11-18T11:15:01;98549.25;;;10.52;67.89
26083;BME280;13848;49.018;12.078;2023-11-18T11:17:28;98544.09;;;12.17;59.03
26083;BME280;13848;49.018;12.078;2023-11-18T11:19:59;98539.25;;;12.97;55.38
26083;BME280;13848;49.018;12.078;2023-11-18T11:22:38;98550.78;;;13.31;55.90
26083;BME280;13848;49.018;12.078;2023-11-18T11:25:11;98539.59;;;12.76;54.13
26083;BME280;13848;49.018;12.078;2023-11-18T11:27:46;98543.81;;;12.59;53.75
26083;BME280;13848;49.018;12.078;2023-11-18T11:30:19;98546.50;;;10.38;56.06
26083;BME280;13848;49.018;12.078;2023-11-18T11:32:50;98545.16;;;10.00;57.90
26083;BME280;13848;49.018;12.078;2023-11-18T11:35:21;98547.06;;;9.78;59.77
26083;BME280;13848;49.018;12.078;2023-11-18T11:37:48;98545.63;;;10.73;60.01
26083;BME280;13848;49.018;12.078;2023-11-18T11:40:16;98546.41;;;12.14;55.57
26083;BME280;13848;49.018;12.078;2023-11-18T11:42:43;98548.81;;;10.96;56.94
26083;BME280;13848;49.018;12.078;2023-11-18T11:45:10;98549.31;;;10.30;58.73
26083;BME280;13848;49.018;12.078;2023-11-18T11:47:36;98555.00;;;10.14;59.59
26083;BME280;13848;49.018;12.078;2023-11-18T11:50:06;98547.56;;;9.88;60.47
26083;BME280;13848;49.018;12.078;2023-11-18T11:52:36;98531.97;;;9.55;61.20
26083;BME280;13848;49.018;12.078;2023-11-18T11:55:09;98522.44;;;9.53;61.01
26083;BME280;13848;49.018;12.078;2023-11-18T11:57:38;98522.44;;;9.53;61.35
26083;BME280;13848;49.018;12.078;2023-11-18T12:00:09;98528.19;;;9.50;61.76
26083;BME280;13848;49.018;12.078;2023-11-18T12:02:35;98538.16;;;9.77;62.44
26083;BME280;13848;49.018;12.078;2023-11-18T12:05:01;98527.88;;;9.59;61.46
26083;BME280;13848;49.018;12.078;2023-11-18T12:07:28;98518.09;;;9.52;61.31
26083;BME280;13848;49.018;12.078;2023-11-18T12:09:56;98515.72;;;9.42;62.23
26083;BME280;13848;49.018;12.078;2023-11-18T12:12:22;98517.66;;;9.76;62.40
26083;BME280;13848;49.018;12.078;2023-11-18T12:14:49;98505.47;;;10.15;62.40
26083;BME280;13848;49.018;12.078;2023-11-18T12:17:17;98510.19;;;10.41;60.74
26083;BME280;13848;49.018;12.078;2023-11-18T12:19:43;98492.34;;;10.33;60.10
26083;BME280;13848;49.018;12.078;2023-11-18T12:22:09;98505.06;;;9.83;60.96
26083;BME280;13848;49.018;12.078;2023-11-18T12:24:35;98491.00;;;9.60;61.66
26083;BME280;13848;49.018;12.078;2023-11-18T12:27:01;98491.31;;;10.06;62.48
26083;BME280;13848;49.018;12.078;2023-11-18T12:29:31;98477.22;;;10.04;61.27
26083;BME280;13848;49.018;12.078;2023-11-18T12:31:57;98472.78;;;9.62;61.26
26083;BME280;13848;49.018;12.078;2023-11-18T12:34:24;98469.94;;;9.14;62.31
26083;BME280;13848;49.018;12.078;2023-11-18T12:43:00;98444.00;;;9.06;64.25
26083;BME280;13848;49.018;12.078;2023-11-18T12:45:42;98441.19;;;8.93;63.80
26083;BME280;13848;49.018;12.078;2023-11-18T12:48:10;98441.00;;;8.95;64.46
26083;BME280;13848;49.018;12.078;2023-11-18T12:50:41;98434.22;;;8.77;64.24
26083;BME280;13848;49.018;12.078;2023-11-18T12:53:07;98418.13;;;8.63;64.97
26083;BME280;13848;49.018;12.078;2023-11-18T12:55:33;98417.16;;;8.49;65.26
26083;BME280;13848;49.018;12.078;2023-11-18T12:57:59;98410.69;;;8.28;69.17
26083;BME280;13848;49.018;12.078;2023-11-18T13:00:25;98416.13;;;7.99;67.15
26083;BME280;13848;49.018;12.078;2023-11-18T13:02:51;98426.16;;;7.90;67.28